Nouasseur, Morocco
Current Conditions -  °F | °C
As of 6:00 PM on Tuesday 21 Oct 2014 (Local Time) from GMMN Reporting Station
Clear Clear  
Wind Chill: 31°   Ceiling: Unl
Heat Index: 31°   Visibility: 6mi
Dew Point:   Wind: 13mph
Humidity: 24%   Direction: 10°N
Pressure: 30.15"   Gusts: NA
Location:  33.37°N, 7.58°W
Report Text: GMMN 211700Z 01011KT CAVOK 31/08 Q1021 NOSIG
Loading
Personal Weather Stations






























Interactive Weather Map
Tropical Storm Tracking
New forecast layout! Learn more

10-Day Weather Forecast

Advertisements
Track Severe Weather on mobile